createdAt,value
2023-06-10T00:01:56.564Z,99459.94
2023-06-10T00:04:24.425Z,99454.88
2023-06-10T00:06:54.963Z,99456.53
2023-06-10T00:09:22.842Z,99453.75
2023-06-10T00:11:50.781Z,99455.59
2023-06-10T00:14:18.948Z,99454.44
2023-06-10T00:16:47.188Z,99448.28
2023-06-10T00:19:16.665Z,99453.34
2023-06-10T00:21:45.947Z,99451.66
2023-06-10T00:24:15.353Z,99445.03
2023-06-10T00:26:43.620Z,99447.59
2023-06-10T00:29:11.457Z,99444.09
2023-06-10T00:31:40.110Z,99440.44
2023-06-10T00:34:08.428Z,99445.75
2023-06-10T00:36:37.169Z,99445.91
2023-06-10T00:39:05.470Z,99446.03
2023-06-10T00:41:35.262Z,99447.03
2023-06-10T00:44:03.356Z,99457.00
2023-06-10T00:46:33.366Z,99455.28
2023-06-10T00:49:02.300Z,99457.25
2023-06-10T00:51:30.208Z,99466.50
2023-06-10T00:53:58.592Z,99460.63
2023-06-10T00:56:26.983Z,99466.50
2023-06-10T00:58:56.359Z,99467.34
2023-06-10T01:01:25.098Z,99465.25
2023-06-10T01:03:53.049Z,99460.63
2023-06-10T01:06:25.885Z,99464.13
2023-06-10T01:08:58.415Z,99457.00
2023-06-10T01:11:31.053Z,99459.50
2023-06-10T01:14:00.910Z,99461.19
2023-06-10T01:16:29.602Z,99459.34
2023-06-10T01:18:57.834Z,99463.16
2023-06-10T01:21:27.610Z,99457.00
2023-06-10T01:23:56.984Z,99462.31
2023-06-10T01:26:27.190Z,99463.84
2023-06-10T01:28:57.536Z,99470.69
2023-06-10T01:31:34.955Z,99471.97
2023-06-10T01:34:04.545Z,99468.72
2023-06-10T01:36:34.538Z,99469.28
2023-06-10T01:39:03.058Z,99468.47
2023-06-10T01:41:31.111Z,99464.81
2023-06-10T01:43:58.930Z,99460.88
2023-06-10T01:46:26.860Z,99456.69
2023-06-10T01:48:54.736Z,99460.75
2023-06-10T01:51:22.669Z,99463.41
2023-06-10T01:53:51.901Z,99457.38
2023-06-10T01:56:21.112Z,99463.97
2023-06-10T01:58:49.038Z,99469.00
2023-06-10T02:01:16.994Z,99462.56
2023-06-10T02:03:45.140Z,99453.44
2023-06-10T02:06:13.076Z,99454.69
2023-06-10T02:11:10.796Z,99461.97
2023-06-10T02:13:40.492Z,99457.59
2023-06-10T02:16:08.565Z,99465.75
2023-06-10T02:18:36.427Z,99467.72
2023-06-10T02:21:04.379Z,99464.31
2023-06-10T02:23:32.396Z,99467.13
2023-06-10T02:26:00.312Z,99472.47
2023-06-10T02:28:29.632Z,99464.75
2023-06-10T02:30:58.318Z,99457.84
2023-06-10T02:33:26.289Z,99461.66
2023-06-10T02:35:54.173Z,99471.56
2023-06-10T02:38:22.070Z,99467.53
2023-06-10T02:40:49.938Z,99463.06
2023-06-10T02:43:17.850Z,99457.75
2023-06-10T02:45:47.411Z,99467.22
2023-06-10T02:48:15.335Z,99473.41
2023-06-10T02:50:43.226Z,99469.19
2023-06-10T02:53:11.100Z,99480.53
2023-06-10T02:55:39.396Z,99477.88
2023-06-10T02:58:07.289Z,99472.81
2023-06-10T03:00:35.483Z,99478.03
2023-06-10T03:03:06.358Z,99476.78
2023-06-10T03:05:34.773Z,99475.94
2023-06-10T03:08:02.654Z,99475.47
2023-06-10T03:10:30.526Z,99481.78
2023-06-10T03:12:58.402Z,99482.34
2023-06-10T03:15:26.762Z,99478.03
2023-06-10T03:17:54.656Z,99477.88
2023-06-10T03:20:24.607Z,99476.88
2023-06-10T03:22:52.703Z,99478.88
2023-06-10T03:25:22.055Z,99486.28
2023-06-10T03:27:49.964Z,99488.00
2023-06-10T03:30:18.134Z,99484.09
2023-06-10T03:32:46.172Z,99486.34
2023-06-10T03:35:14.028Z,99481.56
2023-06-10T03:37:43.310Z,99493.06
2023-06-10T03:40:11.399Z,99485.09
2023-06-10T03:42:39.310Z,99479.91
2023-06-10T03:45:08.000Z,99482.75
2023-06-10T03:47:37.358Z,99483.59
2023-06-10T03:50:05.728Z,99476.59
2023-06-10T03:52:33.633Z,99475.75
2023-06-10T03:55:02.910Z,99473.00
2023-06-10T03:57:30.847Z,99476.81
2023-06-10T03:59:58.784Z,99476.41
2023-06-10T04:02:27.032Z,99476.28
2023-06-10T04:04:54.962Z,99487.84
2023-06-10T04:07:22.903Z,99470.38
2023-06-10T04:09:51.807Z,99474.00
2023-06-10T04:12:21.026Z,99472.69
2023-06-10T04:14:48.929Z,99469.22
2023-06-10T04:17:17.729Z,99467.47
2023-06-10T04:19:45.803Z,99458.31
2023-06-10T04:22:13.685Z,99462.94
2023-06-10T04:24:41.605Z,99459.44
2023-06-10T04:27:09.562Z,99465.91
2023-06-10T04:29:38.938Z,99454.44
2023-06-10T04:32:07.997Z,99445.44
2023-06-10T04:34:35.968Z,99455.25
2023-06-10T04:37:03.947Z,99450.75
2023-06-10T04:39:31.881Z,99447.94
2023-06-10T04:41:59.786Z,99444.13
2023-06-10T04:44:27.623Z,99451.56
2023-06-10T04:46:57.272Z,99457.84
2023-06-10T04:49:25.325Z,99452.34
2023-06-10T04:51:53.215Z,99450.63
2023-06-10T04:54:21.059Z,99440.72
2023-06-10T04:56:48.946Z,99448.72
2023-06-10T04:59:16.822Z,99452.59
2023-06-10T05:01:44.857Z,99448.06
2023-06-10T05:04:14.209Z,99452.69
2023-06-10T05:06:42.174Z,99443.41
2023-06-10T05:09:10.058Z,99460.63
2023-06-10T05:11:37.900Z,99446.38
2023-06-10T05:14:06.469Z,99455.53
2023-06-10T05:16:34.411Z,99465.09
2023-06-10T05:19:02.460Z,99462.91
2023-06-10T05:21:32.366Z,99468.47
2023-06-10T05:24:00.694Z,99464.78
2023-06-10T05:26:30.064Z,99462.44
2023-06-10T05:28:57.979Z,99466.34
2023-06-10T05:31:25.891Z,99464.81
2023-06-10T05:33:54.052Z,99468.63
2023-06-10T05:36:22.150Z,99465.63
2023-06-10T05:38:51.487Z,99464.13
2023-06-10T05:41:19.452Z,99468.44
2023-06-10T05:43:47.624Z,99466.53
2023-06-10T05:46:16.029Z,99473.34
2023-06-10T05:48:44.044Z,99460.94
2023-06-10T05:51:12.311Z,99466.22
2023-06-10T05:53:41.082Z,99464.44
2023-06-10T05:56:10.393Z,99468.13
2023-06-10T05:58:38.226Z,99471.63
2023-06-10T06:01:06.362Z,99470.69
2023-06-10T06:03:34.512Z,99469.38
2023-06-10T06:06:02.500Z,99463.13
2023-06-10T06:08:30.360Z,99471.34
2023-06-10T06:10:58.243Z,99455.88
2023-06-10T06:13:27.522Z,99471.00
2023-06-10T06:15:55.464Z,99465.03
2023-06-10T06:18:23.392Z,99463.50
2023-06-10T06:20:52.114Z,99469.22
2023-06-10T06:23:19.967Z,99461.69
2023-06-10T06:25:47.914Z,99468.88
2023-06-10T06:28:16.004Z,99479.81
2023-06-10T06:30:45.324Z,99492.19
2023-06-10T06:33:15.510Z,99484.94
2023-06-10T06:35:46.754Z,99493.06
2023-06-10T06:38:14.618Z,99485.06
2023-06-10T06:40:42.514Z,99475.03
2023-06-10T06:43:10.432Z,99490.19
2023-06-10T06:45:38.300Z,99488.13
2023-06-10T06:48:08.124Z,99492.91
2023-06-10T06:50:36.128Z,99488.16
2023-06-10T06:53:03.989Z,99489.22
2023-06-10T06:55:32.016Z,99492.91
2023-06-10T06:58:03.906Z,99491.44
2023-06-10T07:00:31.903Z,99496.03
2023-06-10T07:02:59.842Z,99489.19
2023-06-10T07:05:29.498Z,99486.13
2023-06-10T07:07:57.476Z,99496.72
2023-06-10T07:10:25.607Z,99490.22
2023-06-10T07:12:53.736Z,99494.44
2023-06-10T07:15:21.753Z,99499.66
2023-06-10T07:17:49.742Z,99498.66
2023-06-10T07:20:19.315Z,99500.00
2023-06-10T07:22:48.640Z,99500.13
2023-06-10T07:25:17.160Z,99506.88
2023-06-10T07:27:45.167Z,99505.13
2023-06-10T07:30:13.650Z,99512.28
2023-06-10T07:32:43.049Z,99511.75
2023-06-10T07:35:12.025Z,99513.47
2023-06-10T07:37:40.302Z,99496.09
2023-06-10T07:40:11.864Z,99503.13
2023-06-10T07:42:39.864Z,99508.16
2023-06-10T07:45:08.449Z,99504.09
2023-06-10T07:47:37.435Z,99507.50
2023-06-10T07:50:05.638Z,99501.84
2023-06-10T07:52:33.527Z,99517.13
2023-06-10T07:55:01.486Z,99518.16
2023-06-10T07:57:32.858Z,99516.88
2023-06-10T08:00:01.470Z,99523.09
2023-06-10T08:02:29.426Z,99521.41
2023-06-10T08:04:57.358Z,99515.81
2023-06-10T08:07:25.278Z,99513.00
2023-06-10T08:09:53.135Z,99516.31
2023-06-10T08:12:21.585Z,99515.56
2023-06-10T08:14:51.182Z,99517.28
2023-06-10T08:17:19.097Z,99512.63
2023-06-10T08:19:47.081Z,99513.59
2023-06-10T08:22:15.976Z,99507.09
2023-06-10T08:24:44.312Z,99513.56
2023-06-10T08:27:12.801Z,99508.00
2023-06-10T08:29:41.409Z,99508.25
2023-06-10T08:32:10.856Z,99505.06
2023-06-10T08:34:38.803Z,99505.53
2023-06-10T08:37:07.032Z,99498.66
2023-06-10T08:39:34.924Z,99498.25
2023-06-10T08:42:07.098Z,99495.16
2023-06-10T08:44:39.155Z,99493.31
2023-06-10T08:47:10.538Z,99498.44
2023-06-10T08:49:40.957Z,99490.28
2023-06-10T08:52:09.472Z,99487.91
2023-06-10T08:54:39.160Z,99490.28
2023-06-10T08:57:08.630Z,99478.84
2023-06-10T08:59:36.765Z,99471.16
2023-06-10T09:02:05.202Z,99467.25
2023-06-10T09:04:33.266Z,99465.56
2023-06-10T09:07:02.927Z,99465.69
2023-06-10T09:09:31.811Z,99461.50
2023-06-10T09:12:00.266Z,99461.63
2023-06-10T09:14:28.288Z,99461.53
2023-06-10T09:16:58.199Z,99456.03
2023-06-10T09:19:26.475Z,99440.59
2023-06-10T09:21:54.391Z,99446.09
2023-06-10T09:24:25.078Z,99448.19
2023-06-10T09:26:53.083Z,99446.66
2023-06-10T09:29:20.924Z,99432.22
2023-06-10T09:31:49.272Z,99439.47
2023-06-10T09:34:18.322Z,99450.41
2023-06-10T09:36:46.442Z,99434.41
2023-06-10T09:39:22.375Z,99442.13
2023-06-10T09:41:52.050Z,99435.91
2023-06-10T09:44:20.640Z,99439.09
2023-06-10T09:46:49.019Z,99440.06
2023-06-10T09:49:18.079Z,99439.31
2023-06-10T09:51:53.369Z,99433.69
2023-06-10T09:54:21.675Z,99429.72
2023-06-10T09:56:50.100Z,99428.63
2023-06-10T09:59:30.326Z,99442.00
2023-06-10T10:01:58.461Z,99437.28
2023-06-10T10:04:26.976Z,99435.91
2023-06-10T10:06:55.083Z,99442.06
2023-06-10T10:09:23.361Z,99443.78
2023-06-10T10:11:52.022Z,99439.94
2023-06-10T10:14:22.330Z,99437.44
2023-06-10T10:16:52.059Z,99445.06
2023-06-10T10:19:25.577Z,99449.19
2023-06-10T10:21:55.778Z,99460.66
2023-06-10T10:24:25.657Z,99452.31
2023-06-10T10:26:56.873Z,99449.69
2023-06-10T10:29:28.344Z,99451.97
2023-06-10T10:31:59.143Z,99451.63
2023-06-10T10:34:33.515Z,99440.22
2023-06-10T10:37:04.614Z,99439.50
2023-06-10T10:39:37.145Z,99437.66
2023-06-10T10:42:11.883Z,99442.13
2023-06-10T10:44:45.467Z,99432.75
2023-06-10T10:47:18.309Z,99430.66
2023-06-10T10:49:51.191Z,99429.81
2023-06-10T10:52:22.283Z,99426.81
2023-06-10T10:54:58.433Z,99424.38
2023-06-10T10:57:33.703Z,99416.94
2023-06-10T11:00:07.116Z,99414.09
2023-06-10T11:02:42.622Z,99411.81
2023-06-10T11:05:14.538Z,99413.88
2023-06-10T11:07:46.557Z,99404.50
2023-06-10T11:10:18.028Z,99401.22
2023-06-10T11:12:57.638Z,99392.25
2023-06-10T11:15:30.223Z,99387.41
2023-06-10T11:18:20.215Z,99385.28
2023-06-10T11:21:00.679Z,99380.81
2023-06-10T11:23:35.073Z,99383.47
2023-06-10T11:26:15.971Z,99387.50
2023-06-10T11:28:44.573Z,99380.03
2023-06-10T11:31:21.943Z,99395.88
2023-06-10T11:33:50.525Z,99387.88
2023-06-10T11:36:19.370Z,99383.75
2023-06-10T11:38:48.460Z,99385.69
2023-06-10T11:41:16.981Z,99380.88
2023-06-10T11:43:45.521Z,99376.91
2023-06-10T11:46:13.733Z,99373.38
2023-06-10T11:48:50.873Z,99370.16
2023-06-10T11:51:19.585Z,99368.81
2023-06-10T11:53:47.684Z,99368.38
2023-06-10T11:56:15.743Z,99365.44
2023-06-10T11:58:46.312Z,99378.28
2023-06-10T12:01:28.270Z,99372.66
2023-06-10T12:04:08.384Z,99379.75
2023-06-10T12:06:44.458Z,99376.22
2023-06-10T12:09:25.314Z,99372.03
2023-06-10T12:11:56.930Z,99379.03
2023-06-10T12:14:43.311Z,99370.84
2023-06-10T12:17:11.608Z,99371.22
2023-06-10T12:19:42.264Z,99362.59
2023-06-10T12:22:11.397Z,99362.69
2023-06-10T12:24:46.879Z,99358.00
2023-06-10T12:27:15.222Z,99350.50
2023-06-10T12:29:55.112Z,99347.56
2023-06-10T12:32:28.287Z,99343.06
2023-06-10T12:35:06.882Z,99331.94
2023-06-10T12:37:36.937Z,99331.16
2023-06-10T12:40:09.501Z,99326.88
2023-06-10T12:42:38.338Z,99333.63
2023-06-10T12:45:11.810Z,99325.13
2023-06-10T12:47:41.166Z,99326.41
2023-06-10T12:50:13.344Z,99331.91
2023-06-10T12:52:42.340Z,99328.81
2023-06-10T12:55:10.834Z,99310.44
2023-06-10T12:57:39.043Z,99309.28
2023-06-10T13:00:10.099Z,99322.59
2023-06-10T13:02:38.084Z,99305.53
2023-06-10T13:05:06.258Z,99311.97
2023-06-10T13:07:35.769Z,99297.59
2023-06-10T13:10:03.613Z,99301.91
2023-06-10T13:12:46.126Z,99296.94
2023-06-10T13:15:15.884Z,99298.31
2023-06-10T13:17:44.483Z,99299.16
2023-06-10T13:20:12.739Z,99295.06
2023-06-10T13:22:41.929Z,99292.97
2023-06-10T13:25:10.971Z,99303.03
2023-06-10T13:27:40.213Z,99295.94
2023-06-10T13:30:08.807Z,99294.09
2023-06-10T13:32:36.917Z,99294.91
2023-06-10T13:35:06.141Z,99309.25
2023-06-10T13:37:34.949Z,99288.81
2023-06-10T13:40:05.033Z,99288.00
2023-06-10T13:42:33.277Z,99292.28
2023-06-10T13:45:01.131Z,99298.31
2023-06-10T13:47:29.371Z,99303.22
2023-06-10T13:49:57.351Z,99304.50
2023-06-10T13:52:25.322Z,99305.16
2023-06-10T13:54:53.222Z,99315.97
2023-06-10T13:57:22.721Z,99308.69
2023-06-10T13:59:50.632Z,99309.22
2023-06-10T14:02:18.580Z,99314.34
2023-06-10T14:04:46.541Z,99307.47
2023-06-10T14:07:14.476Z,99300.16
2023-06-10T14:09:42.372Z,99304.28
2023-06-10T14:12:10.502Z,99294.94
2023-06-10T14:14:39.777Z,99299.97
2023-06-10T14:17:08.025Z,99303.31
2023-06-10T14:19:35.969Z,99297.53
2023-06-10T14:22:06.519Z,99296.88
2023-06-10T14:24:36.283Z,99299.94
2023-06-10T14:27:04.165Z,99292.25
2023-06-10T14:29:32.912Z,99297.59
2023-06-10T14:32:02.491Z,99293.97
2023-06-10T14:34:34.784Z,99298.34
2023-06-10T14:37:04.570Z,99287.22
2023-06-10T14:39:32.562Z,99295.94
2023-06-10T14:42:00.413Z,99286.09
2023-06-10T14:44:28.822Z,99293.50
2023-06-10T14:46:56.743Z,99295.16
2023-06-10T14:49:25.970Z,99290.94
2023-06-10T14:51:54.050Z,99304.97
2023-06-10T14:54:21.871Z,99304.47
2023-06-10T14:56:49.844Z,99313.09
2023-06-10T14:59:17.742Z,99316.47
2023-06-10T15:01:45.689Z,99319.63
2023-06-10T15:04:13.717Z,99314.00
2023-06-10T15:06:43.751Z,99321.00
2023-06-10T15:09:11.671Z,99308.19
2023-06-10T15:11:39.971Z,99310.88
2023-06-10T15:14:07.875Z,99293.16
2023-06-10T15:16:36.629Z,99299.25
2023-06-10T15:19:04.704Z,99300.34
2023-06-10T15:21:32.623Z,99304.19
2023-06-10T15:24:01.960Z,99315.81
2023-06-10T15:26:29.901Z,99343.38
2023-06-10T15:28:57.862Z,99324.16
2023-06-10T15:31:26.020Z,99333.13
2023-06-10T15:33:53.952Z,99315.09
2023-06-10T15:36:21.963Z,99317.16
2023-06-10T15:38:49.791Z,99325.25
2023-06-10T15:41:19.248Z,99320.50
2023-06-10T15:43:47.685Z,99320.91
2023-06-10T15:46:15.645Z,99335.81
2023-06-10T15:48:43.619Z,99336.72
2023-06-10T15:51:11.841Z,99325.59
2023-06-10T15:53:39.668Z,99326.28
2023-06-10T15:56:07.605Z,99336.34
2023-06-10T15:58:36.885Z,99342.53
2023-06-10T16:01:05.165Z,99334.41
2023-06-10T16:03:33.209Z,99342.53
2023-06-10T16:06:01.226Z,99338.03
2023-06-10T16:08:29.712Z,99336.47
2023-06-10T16:10:57.651Z,99329.91
2023-06-10T16:13:25.528Z,99329.34
2023-06-10T16:15:54.896Z,99326.97
2023-06-10T16:18:22.830Z,99334.72
2023-06-10T16:20:50.843Z,99336.13
2023-06-10T16:23:18.742Z,99348.75
2023-06-10T16:25:47.007Z,99335.03
2023-06-10T16:28:14.945Z,99336.88
2023-06-10T16:30:42.854Z,99341.41
2023-06-10T16:33:12.248Z,99348.97
2023-06-10T16:35:40.088Z,99349.31
2023-06-10T16:38:07.945Z,99368.41
2023-06-10T16:40:35.845Z,99344.66
2023-06-10T16:43:03.838Z,99354.03
2023-06-10T16:45:31.846Z,99354.66
2023-06-10T16:47:59.844Z,99365.56
2023-06-10T16:50:29.230Z,99360.03
2023-06-10T16:52:57.118Z,99368.41
2023-06-10T16:55:25.107Z,99362.69
2023-06-10T16:57:53.052Z,99363.72
2023-06-10T17:00:25.097Z,99348.97
2023-06-10T17:02:53.332Z,99355.38
2023-06-10T17:05:21.292Z,99357.22
2023-06-10T17:07:50.814Z,99349.31
2023-06-10T17:10:18.733Z,99349.81
2023-06-10T17:12:47.921Z,99359.53
2023-06-10T17:15:16.671Z,99364.59
2023-06-10T17:17:44.636Z,99376.66
2023-06-10T17:20:13.191Z,99379.53
2023-06-10T17:22:41.148Z,99384.41
2023-06-10T17:25:11.006Z,99388.09
2023-06-10T17:27:39.225Z,99387.59
2023-06-10T17:30:09.614Z,99390.94
2023-06-10T17:32:42.322Z,99391.81
2023-06-10T17:35:11.578Z,99401.03
2023-06-10T17:37:39.886Z,99391.66
2023-06-10T17:40:08.878Z,99403.38
2023-06-10T17:42:41.105Z,99395.84
2023-06-10T17:45:09.989Z,99401.22
2023-06-10T17:47:40.654Z,99400.38
2023-06-10T17:50:09.046Z,99402.88
2023-06-10T17:52:36.903Z,99406.72
2023-06-10T17:55:05.098Z,99406.91
2023-06-10T17:57:36.054Z,99412.09
2023-06-10T18:00:06.549Z,99408.94
2023-06-10T18:02:34.530Z,99411.63
2023-06-10T18:05:02.542Z,99412.78
2023-06-10T18:07:30.641Z,99415.16
2023-06-10T18:09:58.548Z,99403.09
2023-06-10T18:12:29.625Z,99393.19
2023-06-10T18:14:57.457Z,99404.09
2023-06-10T18:17:30.298Z,99398.38
2023-06-10T18:19:58.266Z,99402.91
2023-06-10T18:22:26.192Z,99397.72
2023-06-10T18:24:54.635Z,99392.03
2023-06-10T18:27:22.636Z,99396.06
2023-06-10T18:29:50.535Z,99400.06
2023-06-10T18:32:27.880Z,99402.38
2023-06-10T18:34:57.193Z,99406.06
2023-06-10T18:37:25.997Z,99415.28
2023-06-10T18:40:02.041Z,99406.72
2023-06-10T18:42:30.619Z,99412.41
2023-06-10T18:44:58.561Z,99410.75
2023-06-10T18:47:26.756Z,99415.28
2023-06-10T18:49:54.895Z,99421.63
2023-06-10T18:52:24.515Z,99419.09
2023-06-10T18:54:52.616Z,99427.16
2023-06-10T18:57:20.778Z,99432.84
2023-06-10T18:59:48.686Z,99433.69
2023-06-10T19:02:16.926Z,99439.19
2023-06-10T19:04:45.433Z,99441.03
2023-06-10T19:07:18.396Z,99437.84
2023-06-10T19:09:53.859Z,99447.59
2023-06-10T19:12:25.226Z,99443.06
2023-06-10T19:14:56.112Z,99444.22
2023-06-10T19:17:27.325Z,99448.91
2023-06-10T19:20:07.793Z,99440.34
2023-06-10T19:22:43.637Z,99440.69
2023-06-10T19:25:15.758Z,99435.63
2023-06-10T19:27:44.724Z,99439.31
2023-06-10T19:30:13.197Z,99437.97
2023-06-10T19:32:41.616Z,99426.44
2023-06-10T19:35:10.506Z,99422.06
2023-06-10T19:37:38.696Z,99431.44
2023-06-10T19:40:07.356Z,99431.09
2023-06-10T19:42:38.460Z,99433.91
2023-06-10T19:45:07.181Z,99436.44
2023-06-10T19:47:35.472Z,99438.63
2023-06-10T19:50:03.357Z,99445.31
2023-06-10T19:52:33.432Z,99440.09
2023-06-10T19:55:01.598Z,99446.97
2023-06-10T19:57:29.634Z,99447.13
2023-06-10T19:59:58.934Z,99447.13
2023-06-10T20:02:33.209Z,99455.16
2023-06-10T20:05:01.550Z,99454.16
2023-06-10T20:07:29.790Z,99451.78
2023-06-10T20:09:58.656Z,99446.94
2023-06-10T20:12:26.737Z,99451.75
2023-06-10T20:14:54.561Z,99456.44
2023-06-10T20:17:24.173Z,99460.13
2023-06-10T20:19:53.724Z,99462.94
2023-06-10T20:22:22.098Z,99468.78
2023-06-10T20:24:52.744Z,99485.19
2023-06-10T20:27:20.823Z,99465.59
2023-06-10T20:29:48.900Z,99480.81
2023-06-10T20:32:17.040Z,99468.03
2023-06-10T20:34:46.614Z,99467.84
2023-06-10T20:37:14.613Z,99463.78
2023-06-10T20:39:43.024Z,99468.66
2023-06-10T20:42:12.530Z,99475.16
2023-06-10T20:44:42.336Z,99466.59
2023-06-10T20:47:10.741Z,99471.09
2023-06-10T20:49:38.665Z,99470.63
2023-06-10T20:52:08.401Z,99466.41
2023-06-10T20:54:36.594Z,99465.59
2023-06-10T20:57:18.723Z,99468.97
2023-06-10T20:59:46.796Z,99465.59
2023-06-10T21:02:14.804Z,99462.25
2023-06-10T21:04:42.701Z,99463.38
2023-06-10T21:07:12.252Z,99452.16
2023-06-10T21:09:40.106Z,99453.16
2023-06-10T21:12:08.532Z,99452.81
2023-06-10T21:14:36.503Z,99447.75
2023-06-10T21:17:04.713Z,99455.13
2023-06-10T21:19:32.604Z,99451.44
2023-06-10T21:22:02.524Z,99458.09
2023-06-10T21:24:33.631Z,99460.41
2023-06-10T21:27:01.516Z,99462.78
2023-06-10T21:29:29.860Z,99459.72
2023-06-10T21:31:58.242Z,99464.91
2023-06-10T21:34:26.423Z,99462.78
2023-06-10T21:36:54.636Z,99466.41
2023-06-10T21:39:22.545Z,99462.25
2023-06-10T21:41:51.974Z,99467.59
2023-06-10T21:44:19.868Z,99468.06
2023-06-10T21:46:47.778Z,99469.03
2023-06-10T21:49:15.788Z,99466.22
2023-06-10T21:51:44.330Z,99460.34
2023-06-10T21:54:12.168Z,99465.38
2023-06-10T21:56:40.048Z,99463.03
2023-06-10T21:59:10.254Z,99455.31
2023-06-10T22:01:38.512Z,99462.66
2023-06-10T22:04:06.683Z,99461.59
2023-06-10T22:06:35.301Z,99447.84
2023-06-10T22:09:03.305Z,99460.84
2023-06-10T22:11:31.253Z,99462.81
2023-06-10T22:13:59.117Z,99457.63
2023-06-10T22:16:28.720Z,99458.09
2023-06-10T22:18:56.737Z,99456.44
2023-06-10T22:21:25.186Z,99451.53
2023-06-10T22:23:53.234Z,99462.34
2023-06-10T22:26:21.091Z,99455.88
2023-06-10T22:28:49.068Z,99462.03
2023-06-10T22:31:17.100Z,99457.56
2023-06-10T22:33:46.460Z,99461.06
2023-06-10T22:36:14.440Z,99454.72
2023-06-10T22:38:42.252Z,99459.25
2023-06-10T22:41:10.112Z,99464.59
2023-06-10T22:43:38.054Z,99456.94
2023-06-10T22:46:05.894Z,99466.28
2023-06-10T22:48:34.177Z,99462.44
2023-06-10T22:51:03.675Z,99459.94
2023-06-10T22:53:31.803Z,99474.13
2023-06-10T22:55:59.903Z,99466.28
2023-06-10T22:58:28.051Z,99475.97
2023-06-10T23:00:56.039Z,99470.16
2023-06-10T23:03:23.849Z,99469.63
2023-06-10T23:05:51.770Z,99466.97
2023-06-10T23:08:21.054Z,99470.75
2023-06-10T23:10:49.014Z,99466.78
2023-06-10T23:13:16.965Z,99463.88
2023-06-10T23:15:44.908Z,99460.06
2023-06-10T23:18:13.805Z,99456.69
2023-06-10T23:20:43.118Z,99455.97
2023-06-10T23:23:14.603Z,99455.59
2023-06-10T23:25:46.012Z,99450.09
2023-06-10T23:28:13.988Z,99454.72
2023-06-10T23:30:41.929Z,99454.91
2023-06-10T23:33:09.978Z,99455.03
2023-06-10T23:35:37.989Z,99442.97
2023-06-10T23:38:05.933Z,99445.78
2023-06-10T23:40:33.793Z,99441.25
2023-06-10T23:43:03.085Z,99436.78
2023-06-10T23:45:31.073Z,99438.47
2023-06-10T23:47:59.081Z,99439.97
2023-06-10T23:50:26.992Z,99431.56
2023-06-10T23:52:54.870Z,99429.91
2023-06-10T23:55:24.217Z,99432.03
2023-06-10T23:57:52.099Z,99432.19
